sensor_id;sensor_type;location;lat;lon;timestamp;pressure;altitude;pressure_sealevel;temperature
18782;BMP180;9519;51.890;8.970;2023-07-16T00:03:01;98782.00;;;20.90
18782;BMP180;9519;51.890;8.970;2023-07-16T00:08:04;98765.00;;;20.90
18782;BMP180;9519;51.890;8.970;2023-07-16T00:13:10;98836.00;;;20.80
18782;BMP180;9519;51.890;8.970;2023-07-16T00:18:12;98861.00;;;20.70
18782;BMP180;9519;51.890;8.970;2023-07-16T00:23:14;98849.00;;;20.50
18782;BMP180;9519;51.890;8.970;2023-07-16T00:28:18;98834.00;;;20.30
18782;BMP180;9519;51.890;8.970;2023-07-16T00:33:20;98839.00;;;20.20
18782;BMP180;9519;51.890;8.970;2023-07-16T00:38:24;98865.00;;;20.20
18782;BMP180;9519;51.890;8.970;2023-07-16T00:43:28;98890.00;;;20.00
18782;BMP180;9519;51.890;8.970;2023-07-16T00:48:30;98898.00;;;20.00
18782;BMP180;9519;51.890;8.970;2023-07-16T00:53:33;98866.00;;;19.90
18782;BMP180;9519;51.890;8.970;2023-07-16T00:58:36;98859.00;;;19.90
18782;BMP180;9519;51.890;8.970;2023-07-16T01:03:39;98895.00;;;19.90
18782;BMP180;9519;51.890;8.970;2023-07-16T01:08:45;98901.00;;;19.80
18782;BMP180;9519;51.890;8.970;2023-07-16T01:13:50;98904.00;;;19.80
18782;BMP180;9519;51.890;8.970;2023-07-16T01:18:53;98894.00;;;19.70
18782;BMP180;9519;51.890;8.970;2023-07-16T01:24:19;98887.00;;;19.60
18782;BMP180;9519;51.890;8.970;2023-07-16T01:29:34;98897.00;;;19.60
18782;BMP180;9519;51.890;8.970;2023-07-16T01:34:38;98914.00;;;19.60
18782;BMP180;9519;51.890;8.970;2023-07-16T01:39:41;98909.00;;;19.50
18782;BMP180;9519;51.890;8.970;2023-07-16T01:44:45;98906.00;;;19.50
18782;BMP180;9519;51.890;8.970;2023-07-16T01:49:47;98924.00;;;19.40
18782;BMP180;9519;51.890;8.970;2023-07-16T01:54:49;98919.00;;;19.30
18782;BMP180;9519;51.890;8.970;2023-07-16T01:59:52;98933.00;;;19.20
18782;BMP180;9519;51.890;8.970;2023-07-16T02:04:54;98925.00;;;19.00
18782;BMP180;9519;51.890;8.970;2023-07-16T02:09:56;98920.00;;;19.00
18782;BMP180;9519;51.890;8.970;2023-07-16T02:15:00;98911.00;;;18.90
18782;BMP180;9519;51.890;8.970;2023-07-16T02:20:03;98913.00;;;18.90
18782;BMP180;9519;51.890;8.970;2023-07-16T02:25:07;98903.00;;;18.90
18782;BMP180;9519;51.890;8.970;2023-07-16T02:30:11;98913.00;;;18.90
18782;BMP180;9519;51.890;8.970;2023-07-16T02:35:14;98917.00;;;18.90
18782;BMP180;9519;51.890;8.970;2023-07-16T02:40:16;98924.00;;;18.90
18782;BMP180;9519;51.890;8.970;2023-07-16T02:45:20;98927.00;;;18.90
18782;BMP180;9519;51.890;8.970;2023-07-16T02:50:22;98924.00;;;18.80
18782;BMP180;9519;51.890;8.970;2023-07-16T02:55:24;98923.00;;;18.80
18782;BMP180;9519;51.890;8.970;2023-07-16T03:00:28;98940.00;;;18.70
18782;BMP180;9519;51.890;8.970;2023-07-16T03:05:30;98919.00;;;18.70
18782;BMP180;9519;51.890;8.970;2023-07-16T03:10:32;98952.00;;;18.70
18782;BMP180;9519;51.890;8.970;2023-07-16T03:15:35;98958.00;;;18.70
18782;BMP180;9519;51.890;8.970;2023-07-16T03:20:37;98955.00;;;18.70
18782;BMP180;9519;51.890;8.970;2023-07-16T03:25:39;98960.00;;;18.60
18782;BMP180;9519;51.890;8.970;2023-07-16T03:30:46;98967.00;;;18.60
18782;BMP180;9519;51.890;8.970;2023-07-16T03:35:49;98957.00;;;18.60
18782;BMP180;9519;51.890;8.970;2023-07-16T03:40:51;98976.00;;;18.50
18782;BMP180;9519;51.890;8.970;2023-07-16T03:45:55;98966.00;;;18.50
18782;BMP180;9519;51.890;8.970;2023-07-16T03:50:57;98974.00;;;18.40
18782;BMP180;9519;51.890;8.970;2023-07-16T03:55:59;98983.00;;;18.30
18782;BMP180;9519;51.890;8.970;2023-07-16T04:01:02;98984.00;;;18.30
18782;BMP180;9519;51.890;8.970;2023-07-16T04:06:06;98991.00;;;18.20
18782;BMP180;9519;51.890;8.970;2023-07-16T04:11:10;99001.00;;;18.20
18782;BMP180;9519;51.890;8.970;2023-07-16T04:16:13;99005.00;;;18.20
18782;BMP180;9519;51.890;8.970;2023-07-16T04:21:15;99015.00;;;18.20
18782;BMP180;9519;51.890;8.970;2023-07-16T04:26:17;99032.00;;;18.20
18782;BMP180;9519;51.890;8.970;2023-07-16T04:31:21;99037.00;;;18.30
18782;BMP180;9519;51.890;8.970;2023-07-16T04:36:23;99034.00;;;18.30
18782;BMP180;9519;51.890;8.970;2023-07-16T04:41:25;99042.00;;;18.40
18782;BMP180;9519;51.890;8.970;2023-07-16T04:46:28;99041.00;;;18.40
18782;BMP180;9519;51.890;8.970;2023-07-16T04:51:31;99050.00;;;18.40
18782;BMP180;9519;51.890;8.970;2023-07-16T04:56:33;99059.00;;;18.40
18782;BMP180;9519;51.890;8.970;2023-07-16T05:01:36;99066.00;;;18.50
18782;BMP180;9519;51.890;8.970;2023-07-16T05:06:38;99074.00;;;18.50
18782;BMP180;9519;51.890;8.970;2023-07-16T05:11:40;99075.00;;;18.50
18782;BMP180;9519;51.890;8.970;2023-07-16T05:16:44;99087.00;;;18.60
18782;BMP180;9519;51.890;8.970;2023-07-16T05:21:46;99091.00;;;18.60
18782;BMP180;9519;51.890;8.970;2023-07-16T05:26:51;99091.00;;;18.60
18782;BMP180;9519;51.890;8.970;2023-07-16T05:31:56;99114.00;;;18.60
18782;BMP180;9519;51.890;8.970;2023-07-16T05:36:58;99122.00;;;18.60
18782;BMP180;9519;51.890;8.970;2023-07-16T05:42:00;99115.00;;;18.50
18782;BMP180;9519;51.890;8.970;2023-07-16T05:47:05;99125.00;;;18.50
18782;BMP180;9519;51.890;8.970;2023-07-16T05:52:07;99121.00;;;18.50
18782;BMP180;9519;51.890;8.970;2023-07-16T05:57:10;99117.00;;;18.60
18782;BMP180;9519;51.890;8.970;2023-07-16T06:02:14;99136.00;;;18.70
18782;BMP180;9519;51.890;8.970;2023-07-16T06:07:16;99139.00;;;18.70
18782;BMP180;9519;51.890;8.970;2023-07-16T06:12:18;99137.00;;;18.70
18782;BMP180;9519;51.890;8.970;2023-07-16T06:17:22;99131.00;;;18.80
18782;BMP180;9519;51.890;8.970;2023-07-16T06:22:24;99128.00;;;18.90
18782;BMP180;9519;51.890;8.970;2023-07-16T06:27:26;99125.00;;;19.00
18782;BMP180;9519;51.890;8.970;2023-07-16T06:32:30;99132.00;;;19.00
18782;BMP180;9519;51.890;8.970;2023-07-16T06:37:32;99143.00;;;19.00
18782;BMP180;9519;51.890;8.970;2023-07-16T06:42:34;99144.00;;;19.10
18782;BMP180;9519;51.890;8.970;2023-07-16T06:47:37;99144.00;;;19.20
18782;BMP180;9519;51.890;8.970;2023-07-16T06:52:39;99153.00;;;19.30
18782;BMP180;9519;51.890;8.970;2023-07-16T06:57:41;99141.00;;;19.40
18782;BMP180;9519;51.890;8.970;2023-07-16T07:02:45;99142.00;;;19.50
18782;BMP180;9519;51.890;8.970;2023-07-16T07:07:47;99144.00;;;19.40
18782;BMP180;9519;51.890;8.970;2023-07-16T07:12:49;99139.00;;;19.40
18782;BMP180;9519;51.890;8.970;2023-07-16T07:17:52;99151.00;;;19.40
18782;BMP180;9519;51.890;8.970;2023-07-16T07:22:55;99151.00;;;19.40
18782;BMP180;9519;51.890;8.970;2023-07-16T07:27:57;99145.00;;;19.50
18782;BMP180;9519;51.890;8.970;2023-07-16T07:33:00;99152.00;;;19.40
18782;BMP180;9519;51.890;8.970;2023-07-16T07:38:04;99156.00;;;19.40
18782;BMP180;9519;51.890;8.970;2023-07-16T07:43:06;99160.00;;;19.40
18782;BMP180;9519;51.890;8.970;2023-07-16T07:48:09;99170.00;;;19.50
18782;BMP180;9519;51.890;8.970;2023-07-16T07:53:12;99161.00;;;19.70
18782;BMP180;9519;51.890;8.970;2023-07-16T07:58:15;99149.00;;;19.90
18782;BMP180;9519;51.890;8.970;2023-07-16T08:03:19;99159.00;;;20.00
18782;BMP180;9519;51.890;8.970;2023-07-16T08:08:21;99162.00;;;20.00
18782;BMP180;9519;51.890;8.970;2023-07-16T08:13:23;99165.00;;;20.00
18782;BMP180;9519;51.890;8.970;2023-07-16T08:18:26;99165.00;;;20.10
18782;BMP180;9519;51.890;8.970;2023-07-16T08:23:28;99151.00;;;20.30
18782;BMP180;9519;51.890;8.970;2023-07-16T08:28:30;99132.00;;;20.50
18782;BMP180;9519;51.890;8.970;2023-07-16T08:33:36;99128.00;;;20.70
18782;BMP180;9519;51.890;8.970;2023-07-16T08:38:38;99114.00;;;21.00
18782;BMP180;9519;51.890;8.970;2023-07-16T08:43:41;99122.00;;;21.20
18782;BMP180;9519;51.890;8.970;2023-07-16T08:48:46;99143.00;;;21.40
18782;BMP180;9519;51.890;8.970;2023-07-16T08:53:49;99145.00;;;21.30
18782;BMP180;9519;51.890;8.970;2023-07-16T08:58:54;99156.00;;;21.10
18782;BMP180;9519;51.890;8.970;2023-07-16T09:03:59;99147.00;;;21.00
18782;BMP180;9519;51.890;8.970;2023-07-16T09:09:01;99152.00;;;21.10
18782;BMP180;9519;51.890;8.970;2023-07-16T09:14:03;99161.00;;;21.20
18782;BMP180;9519;51.890;8.970;2023-07-16T09:19:10;99149.00;;;21.30
18782;BMP180;9519;51.890;8.970;2023-07-16T09:24:14;99155.00;;;21.50
18782;BMP180;9519;51.890;8.970;2023-07-16T09:35:36;99162.00;;;22.10
18782;BMP180;9519;51.890;8.970;2023-07-16T09:40:40;99161.00;;;22.30
18782;BMP180;9519;51.890;8.970;2023-07-16T09:45:43;99158.00;;;22.20
18782;BMP180;9519;51.890;8.970;2023-07-16T09:50:53;99161.00;;;22.00
18782;BMP180;9519;51.890;8.970;2023-07-16T09:55:56;99160.00;;;22.20
18782;BMP180;9519;51.890;8.970;2023-07-16T10:01:01;99155.00;;;22.30
18782;BMP180;9519;51.890;8.970;2023-07-16T10:06:08;99146.00;;;22.60
18782;BMP180;9519;51.890;8.970;2023-07-16T10:11:17;99163.00;;;22.70
18782;BMP180;9519;51.890;8.970;2023-07-16T10:16:23;99158.00;;;22.90
18782;BMP180;9519;51.890;8.970;2023-07-16T10:21:37;99168.00;;;22.90
18782;BMP180;9519;51.890;8.970;2023-07-16T10:26:40;99171.00;;;23.00
18782;BMP180;9519;51.890;8.970;2023-07-16T10:31:42;99162.00;;;22.80
18782;BMP180;9519;51.890;8.970;2023-07-16T10:36:46;99163.00;;;22.80
18782;BMP180;9519;51.890;8.970;2023-07-16T10:41:48;99161.00;;;22.80
18782;BMP180;9519;51.890;8.970;2023-07-16T10:46:51;99171.00;;;22.80
18782;BMP180;9519;51.890;8.970;2023-07-16T10:52:00;99165.00;;;23.00
18782;BMP180;9519;51.890;8.970;2023-07-16T10:57:04;99178.00;;;23.10
18782;BMP180;9519;51.890;8.970;2023-07-16T11:02:11;99183.00;;;23.00
18782;BMP180;9519;51.890;8.970;2023-07-16T11:07:16;99186.00;;;23.10
18782;BMP180;9519;51.890;8.970;2023-07-16T11:12:21;99167.00;;;23.20
18782;BMP180;9519;51.890;8.970;2023-07-16T11:17:24;99179.00;;;23.10
18782;BMP180;9519;51.890;8.970;2023-07-16T11:22:28;99188.00;;;23.00
18782;BMP180;9519;51.890;8.970;2023-07-16T11:27:32;99168.00;;;22.90
18782;BMP180;9519;51.890;8.970;2023-07-16T11:32:36;99170.00;;;23.00
18782;BMP180;9519;51.890;8.970;2023-07-16T11:37:40;99173.00;;;23.20
18782;BMP180;9519;51.890;8.970;2023-07-16T11:42:43;99170.00;;;23.40
18782;BMP180;9519;51.890;8.970;2023-07-16T11:47:46;99178.00;;;23.60
18782;BMP180;9519;51.890;8.970;2023-07-16T11:52:55;99168.00;;;23.70
18782;BMP180;9519;51.890;8.970;2023-07-16T11:57:57;99163.00;;;23.80
18782;BMP180;9519;51.890;8.970;2023-07-16T12:03:00;99177.00;;;23.90
18782;BMP180;9519;51.890;8.970;2023-07-16T12:08:07;99187.00;;;24.00
18782;BMP180;9519;51.890;8.970;2023-07-16T12:13:14;99173.00;;;24.00
18782;BMP180;9519;51.890;8.970;2023-07-16T12:18:16;99176.00;;;24.10
18782;BMP180;9519;51.890;8.970;2023-07-16T12:23:20;99180.00;;;24.10
18782;BMP180;9519;51.890;8.970;2023-07-16T12:28:22;99177.00;;;24.30
18782;BMP180;9519;51.890;8.970;2023-07-16T12:33:24;99186.00;;;24.40
18782;BMP180;9519;51.890;8.970;2023-07-16T12:38:28;99171.00;;;24.40
18782;BMP180;9519;51.890;8.970;2023-07-16T12:43:30;99175.00;;;24.50
18782;BMP180;9519;51.890;8.970;2023-07-16T12:48:34;99192.00;;;24.70
18782;BMP180;9519;51.890;8.970;2023-07-16T12:53:38;99176.00;;;24.70
18782;BMP180;9519;51.890;8.970;2023-07-16T12:58:42;99187.00;;;24.90
18782;BMP180;9519;51.890;8.970;2023-07-16T13:03:44;99169.00;;;25.00
18782;BMP180;9519;51.890;8.970;2023-07-16T13:08:47;99190.00;;;24.90
18782;BMP180;9519;51.890;8.970;2023-07-16T13:13:49;99196.00;;;24.80
18782;BMP180;9519;51.890;8.970;2023-07-16T13:18:52;99204.00;;;24.90
18782;BMP180;9519;51.890;8.970;2023-07-16T13:23:55;99189.00;;;25.00
18782;BMP180;9519;51.890;8.970;2023-07-16T13:28:57;99204.00;;;25.20
18782;BMP180;9519;51.890;8.970;2023-07-16T13:33:59;99198.00;;;25.50
18782;BMP180;9519;51.890;8.970;2023-07-16T13:39:03;99211.00;;;25.60
18782;BMP180;9519;51.890;8.970;2023-07-16T13:44:06;99195.00;;;25.60
18782;BMP180;9519;51.890;8.970;2023-07-16T13:49:08;99210.00;;;25.40
18782;BMP180;9519;51.890;8.970;2023-07-16T13:54:13;99221.00;;;25.20
18782;BMP180;9519;51.890;8.970;2023-07-16T13:59:15;99227.00;;;24.90
18782;BMP180;9519;51.890;8.970;2023-07-16T14:04:18;99223.00;;;25.20
18782;BMP180;9519;51.890;8.970;2023-07-16T14:09:21;99227.00;;;25.60
18782;BMP180;9519;51.890;8.970;2023-07-16T14:14:24;99213.00;;;25.90
18782;BMP180;9519;51.890;8.970;2023-07-16T14:19:26;99212.00;;;25.90
18782;BMP180;9519;51.890;8.970;2023-07-16T14:24:29;99217.00;;;25.70
18782;BMP180;9519;51.890;8.970;2023-07-16T14:29:31;99222.00;;;25.80
18782;BMP180;9519;51.890;8.970;2023-07-16T14:34:34;99230.00;;;25.80
18782;BMP180;9519;51.890;8.970;2023-07-16T14:39:37;99213.00;;;25.70
18782;BMP180;9519;51.890;8.970;2023-07-16T14:44:39;99217.00;;;25.60
18782;BMP180;9519;51.890;8.970;2023-07-16T14:49:42;99220.00;;;25.40
18782;BMP180;9519;51.890;8.970;2023-07-16T14:54:45;99225.00;;;25.50
18782;BMP180;9519;51.890;8.970;2023-07-16T14:59:47;99222.00;;;25.60
18782;BMP180;9519;51.890;8.970;2023-07-16T15:04:49;99225.00;;;25.80
18782;BMP180;9519;51.890;8.970;2023-07-16T15:09:53;99225.00;;;25.60
18782;BMP180;9519;51.890;8.970;2023-07-16T15:14:55;99226.00;;;25.90
18782;BMP180;9519;51.890;8.970;2023-07-16T15:19:57;99224.00;;;25.80
18782;BMP180;9519;51.890;8.970;2023-07-16T15:25:01;99222.00;;;25.70
18782;BMP180;9519;51.890;8.970;2023-07-16T15:30:03;99209.00;;;25.90
18782;BMP180;9519;51.890;8.970;2023-07-16T15:35:06;99212.00;;;26.20
18782;BMP180;9519;51.890;8.970;2023-07-16T15:40:15;99210.00;;;26.50
18782;BMP180;9519;51.890;8.970;2023-07-16T15:45:17;99214.00;;;26.40
18782;BMP180;9519;51.890;8.970;2023-07-16T15:50:19;99214.00;;;26.30
18782;BMP180;9519;51.890;8.970;2023-07-16T15:55:23;99227.00;;;26.50
18782;BMP180;9519;51.890;8.970;2023-07-16T16:00:25;99226.00;;;26.60
18782;BMP180;9519;51.890;8.970;2023-07-16T16:05:28;99226.00;;;26.60
18782;BMP180;9519;51.890;8.970;2023-07-16T16:10:32;99230.00;;;26.80
18782;BMP180;9519;51.890;8.970;2023-07-16T16:15:34;99224.00;;;26.80
18782;BMP180;9519;51.890;8.970;2023-07-16T16:20:36;99219.00;;;26.60
18782;BMP180;9519;51.890;8.970;2023-07-16T16:25:40;99221.00;;;26.50
18782;BMP180;9519;51.890;8.970;2023-07-16T16:30:42;99223.00;;;26.50
18782;BMP180;9519;51.890;8.970;2023-07-16T16:35:44;99231.00;;;26.50
18782;BMP180;9519;51.890;8.970;2023-07-16T16:40:48;99234.00;;;26.50
18782;BMP180;9519;51.890;8.970;2023-07-16T16:45:50;99235.00;;;26.50
18782;BMP180;9519;51.890;8.970;2023-07-16T16:50:54;99245.00;;;26.50
18782;BMP180;9519;51.890;8.970;2023-07-16T16:56:03;99248.00;;;26.20
18782;BMP180;9519;51.890;8.970;2023-07-16T17:01:06;99252.00;;;25.90
18782;BMP180;9519;51.890;8.970;2023-07-16T17:06:08;99251.00;;;25.40
18782;BMP180;9519;51.890;8.970;2023-07-16T17:11:12;99256.00;;;25.30
18782;BMP180;9519;51.890;8.970;2023-07-16T17:16:14;99248.00;;;24.90
18782;BMP180;9519;51.890;8.970;2023-07-16T17:21:16;99252.00;;;24.70
18782;BMP180;9519;51.890;8.970;2023-07-16T17:26:21;99257.00;;;24.80
18782;BMP180;9519;51.890;8.970;2023-07-16T17:31:23;99269.00;;;24.70
18782;BMP180;9519;51.890;8.970;2023-07-16T17:36:25;99267.00;;;24.50
18782;BMP180;9519;51.890;8.970;2023-07-16T17:41:28;99273.00;;;24.30
18782;BMP180;9519;51.890;8.970;2023-07-16T17:46:31;99277.00;;;24.10
18782;BMP180;9519;51.890;8.970;2023-07-16T17:51:33;99289.00;;;24.00
18782;BMP180;9519;51.890;8.970;2023-07-16T17:56:36;99280.00;;;23.80
18782;BMP180;9519;51.890;8.970;2023-07-16T18:01:38;99279.00;;;23.80
18782;BMP180;9519;51.890;8.970;2023-07-16T18:06:41;99283.00;;;23.80
18782;BMP180;9519;51.890;8.970;2023-07-16T18:11:45;99282.00;;;24.00
18782;BMP180;9519;51.890;8.970;2023-07-16T18:16:47;99286.00;;;24.10
18782;BMP180;9519;51.890;8.970;2023-07-16T18:21:49;99292.00;;;24.10
18782;BMP180;9519;51.890;8.970;2023-07-16T18:26:53;99294.00;;;24.10
18782;BMP180;9519;51.890;8.970;2023-07-16T18:31:56;99289.00;;;24.00
18782;BMP180;9519;51.890;8.970;2023-07-16T18:36:58;99295.00;;;23.80
18782;BMP180;9519;51.890;8.970;2023-07-16T18:42:04;99299.00;;;23.70
18782;BMP180;9519;51.890;8.970;2023-07-16T18:47:06;99308.00;;;23.60
18782;BMP180;9519;51.890;8.970;2023-07-16T18:52:08;99300.00;;;23.50
18782;BMP180;9519;51.890;8.970;2023-07-16T18:57:12;99316.00;;;23.40
18782;BMP180;9519;51.890;8.970;2023-07-16T19:02:14;99310.00;;;23.30
18782;BMP180;9519;51.890;8.970;2023-07-16T19:07:16;99315.00;;;23.20
18782;BMP180;9519;51.890;8.970;2023-07-16T19:12:19;99319.00;;;23.00
18782;BMP180;9519;51.890;8.970;2023-07-16T19:17:23;99329.00;;;22.80
18782;BMP180;9519;51.890;8.970;2023-07-16T19:22:27;99347.00;;;22.60
18782;BMP180;9519;51.890;8.970;2023-07-16T19:27:31;99342.00;;;22.50
18782;BMP180;9519;51.890;8.970;2023-07-16T19:32:33;99355.00;;;22.40
18782;BMP180;9519;51.890;8.970;2023-07-16T19:37:35;99354.00;;;22.30
18782;BMP180;9519;51.890;8.970;2023-07-16T19:42:39;99366.00;;;22.10
18782;BMP180;9519;51.890;8.970;2023-07-16T19:47:41;99375.00;;;22.00
18782;BMP180;9519;51.890;8.970;2023-07-16T19:52:43;99384.00;;;21.90
18782;BMP180;9519;51.890;8.970;2023-07-16T19:57:47;99378.00;;;21.80
18782;BMP180;9519;51.890;8.970;2023-07-16T20:02:49;99389.00;;;21.70
18782;BMP180;9519;51.890;8.970;2023-07-16T20:07:51;99393.00;;;21.50
18782;BMP180;9519;51.890;8.970;2023-07-16T20:12:55;99403.00;;;21.50
18782;BMP180;9519;51.890;8.970;2023-07-16T20:17:57;99401.00;;;21.30
18782;BMP180;9519;51.890;8.970;2023-07-16T20:22:59;99403.00;;;21.10
18782;BMP180;9519;51.890;8.970;2023-07-16T20:28:08;99411.00;;;21.00
18782;BMP180;9519;51.890;8.970;2023-07-16T20:33:10;99408.00;;;20.80
18782;BMP180;9519;51.890;8.970;2023-07-16T20:38:12;99404.00;;;20.70
18782;BMP180;9519;51.890;8.970;2023-07-16T20:43:16;99399.00;;;20.60
18782;BMP180;9519;51.890;8.970;2023-07-16T20:48:18;99393.00;;;20.40
18782;BMP180;9519;51.890;8.970;2023-07-16T20:53:21;99412.00;;;20.30
18782;BMP180;9519;51.890;8.970;2023-07-16T20:58:25;99415.00;;;20.20
18782;BMP180;9519;51.890;8.970;2023-07-16T21:03:27;99420.00;;;20.10
18782;BMP180;9519;51.890;8.970;2023-07-16T21:08:31;99427.00;;;20.00
18782;BMP180;9519;51.890;8.970;2023-07-16T21:13:34;99428.00;;;19.90
18782;BMP180;9519;51.890;8.970;2023-07-16T21:18:36;99404.00;;;19.80
18782;BMP180;9519;51.890;8.970;2023-07-16T21:23:39;99416.00;;;19.70
18782;BMP180;9519;51.890;8.970;2023-07-16T21:28:42;99418.00;;;19.60
18782;BMP180;9519;51.890;8.970;2023-07-16T21:33:44;99414.00;;;19.50
18782;BMP180;9519;51.890;8.970;2023-07-16T21:38:46;99437.00;;;19.50
18782;BMP180;9519;51.890;8.970;2023-07-16T21:43:50;99436.00;;;19.40
18782;BMP180;9519;51.890;8.970;2023-07-16T21:48:52;99428.00;;;19.30
18782;BMP180;9519;51.890;8.970;2023-07-16T21:53:54;99416.00;;;19.20
18782;BMP180;9519;51.890;8.970;2023-07-16T21:58:58;99422.00;;;19.20
18782;BMP180;9519;51.890;8.970;2023-07-16T22:04:00;99422.00;;;19.10
18782;BMP180;9519;51.890;8.970;2023-07-16T22:09:02;99427.00;;;19.00
18782;BMP180;9519;51.890;8.970;2023-07-16T22:14:08;99420.00;;;18.90
18782;BMP180;9519;51.890;8.970;2023-07-16T22:19:10;99424.00;;;18.80
18782;BMP180;9519;51.890;8.970;2023-07-16T22:24:13;99430.00;;;18.80
18782;BMP180;9519;51.890;8.970;2023-07-16T22:29:16;99434.00;;;18.70
18782;BMP180;9519;51.890;8.970;2023-07-16T22:34:19;99432.00;;;18.60
18782;BMP180;9519;51.890;8.970;2023-07-16T22:39:21;99437.00;;;18.50
18782;BMP180;9519;51.890;8.970;2023-07-16T22:44:24;99437.00;;;18.40
18782;BMP180;9519;51.890;8.970;2023-07-16T22:49:26;99447.00;;;18.40
18782;BMP180;9519;51.890;8.970;2023-07-16T22:54:28;99443.00;;;18.30
18782;BMP180;9519;51.890;8.970;2023-07-16T22:59:32;99449.00;;;18.20
18782;BMP180;9519;51.890;8.970;2023-07-16T23:04:34;99445.00;;;18.10
18782;BMP180;9519;51.890;8.970;2023-07-16T23:09:36;99450.00;;;18.00
18782;BMP180;9519;51.890;8.970;2023-07-16T23:14:39;99445.00;;;18.00
18782;BMP180;9519;51.890;8.970;2023-07-16T23:19:41;99449.00;;;17.80
18782;BMP180;9519;51.890;8.970;2023-07-16T23:24:43;99450.00;;;17.80
18782;BMP180;9519;51.890;8.970;2023-07-16T23:29:47;99446.00;;;17.80
18782;BMP180;9519;51.890;8.970;2023-07-16T23:34:49;99447.00;;;17.60
18782;BMP180;9519;51.890;8.970;2023-07-16T23:39:51;99456.00;;;17.60
18782;BMP180;9519;51.890;8.970;2023-07-16T23:44:55;99453.00;;;17.50
18782;BMP180;9519;51.890;8.970;2023-07-16T23:49:57;99444.00;;;17.40
18782;BMP180;9519;51.890;8.970;2023-07-16T23:54:59;99441.00;;;17.30
